createdAt,value
2022-08-18T00:01:14.815Z,18.98
2022-08-18T00:03:56.580Z,19.26
2022-08-18T00:06:30.064Z,19.32
2022-08-18T00:08:59.296Z,19.41
2022-08-18T00:11:28.608Z,19.42
2022-08-18T00:14:22.699Z,19.48
2022-08-18T00:16:53.554Z,19.20
2022-08-18T00:19:45.980Z,19.26
2022-08-18T00:22:14.962Z,19.03
2022-08-18T00:24:47.569Z,18.98
2022-08-18T00:27:21.728Z,19.27
2022-08-18T00:29:53.460Z,19.38
2022-08-18T00:32:24.779Z,19.57
2022-08-18T00:34:52.822Z,19.56
2022-08-18T00:37:21.426Z,19.54
2022-08-18T00:39:51.732Z,19.58
2022-08-18T00:42:27.664Z,19.65
2022-08-18T00:45:03.044Z,19.67
2022-08-18T00:47:41.617Z,19.55
2022-08-18T00:50:18.508Z,19.40
2022-08-18T00:52:51.593Z,19.50
2022-08-18T00:55:20.178Z,19.52
2022-08-18T00:57:52.174Z,19.68
2022-08-18T01:00:22.260Z,19.74
2022-08-18T01:02:56.464Z,19.38
2022-08-18T01:05:30.919Z,19.46
2022-08-18T01:07:59.037Z,19.47
2022-08-18T01:10:27.728Z,19.58
2022-08-18T01:13:00.342Z,19.64
2022-08-18T01:15:30.633Z,19.50
2022-08-18T01:18:18.718Z,19.45
2022-08-18T01:21:16.521Z,19.19
2022-08-18T01:23:47.817Z,19.20
2022-08-18T01:26:16.770Z,19.24
2022-08-18T01:28:47.258Z,19.37
2022-08-18T01:31:32.551Z,19.47
2022-08-18T01:34:01.478Z,19.47
2022-08-18T01:36:29.935Z,19.48
2022-08-18T01:38:59.641Z,19.47
2022-08-18T01:41:30.867Z,19.50
2022-08-18T01:44:00.336Z,19.47
2022-08-18T01:46:28.849Z,19.41
2022-08-18T01:48:58.764Z,19.41
2022-08-18T01:51:40.279Z,19.40
2022-08-18T01:54:16.235Z,19.24
2022-08-18T01:56:44.469Z,19.28
2022-08-18T01:59:15.126Z,19.19
2022-08-18T02:01:48.258Z,19.12
2022-08-18T02:07:10.151Z,19.07
2022-08-18T02:09:41.489Z,19.13
2022-08-18T02:12:09.759Z,19.04
2022-08-18T02:14:38.718Z,19.04
2022-08-18T02:17:09.295Z,18.99
2022-08-18T02:19:40.131Z,18.92
2022-08-18T02:22:09.305Z,18.89
2022-08-18T02:24:39.168Z,18.83
2022-08-18T02:27:08.710Z,18.62
2022-08-18T02:29:37.828Z,18.50
2022-08-18T02:32:06.334Z,18.59
2022-08-18T02:34:34.872Z,18.58
2022-08-18T02:37:03.309Z,18.57
2022-08-18T02:39:31.571Z,18.54
2022-08-18T02:42:00.588Z,18.58
2022-08-18T02:44:32.289Z,18.55
2022-08-18T02:47:00.255Z,18.57
2022-08-18T02:49:29.172Z,18.51
2022-08-18T02:51:56.850Z,18.34
2022-08-18T02:54:26.224Z,18.29
2022-08-18T02:56:57.183Z,18.31
2022-08-18T02:59:31.841Z,18.34
2022-08-18T03:02:01.402Z,18.32
2022-08-18T03:04:33.524Z,18.42
2022-08-18T03:07:04.539Z,18.51
2022-08-18T03:09:33.492Z,18.49
2022-08-18T03:12:01.891Z,18.45
2022-08-18T03:14:32.074Z,18.45
2022-08-18T03:17:00.503Z,18.44
2022-08-18T03:19:30.474Z,18.44
2022-08-18T03:22:02.873Z,18.45
2022-08-18T03:24:32.969Z,18.50
2022-08-18T03:27:02.522Z,18.42
2022-08-18T03:29:32.935Z,18.29
2022-08-18T03:32:01.158Z,18.21
2022-08-18T03:34:30.333Z,18.18
2022-08-18T03:36:58.863Z,18.15
2022-08-18T03:39:28.862Z,18.17
2022-08-18T03:42:01.118Z,18.17
2022-08-18T03:44:33.011Z,18.19
2022-08-18T03:47:02.994Z,18.14
2022-08-18T03:49:32.760Z,18.09
2022-08-18T03:52:01.326Z,18.11
2022-08-18T03:54:32.711Z,18.07
2022-08-18T03:57:00.682Z,18.07
2022-08-18T03:59:32.343Z,18.13
2022-08-18T04:02:03.804Z,18.00
2022-08-18T04:04:31.887Z,17.94
2022-08-18T04:07:04.434Z,17.98
2022-08-18T04:09:34.327Z,17.95
2022-08-18T04:12:11.190Z,17.95
2022-08-18T04:14:46.718Z,17.83
2022-08-18T04:17:16.160Z,17.71
2022-08-18T04:19:44.073Z,17.87
2022-08-18T04:22:17.606Z,17.99
2022-08-18T04:24:46.715Z,18.00
2022-08-18T04:27:14.393Z,17.99
2022-08-18T04:29:42.413Z,18.06
2022-08-18T04:32:10.117Z,18.14
2022-08-18T04:34:39.435Z,18.13
2022-08-18T04:37:09.518Z,18.18
2022-08-18T04:39:37.814Z,18.30
2022-08-18T04:42:06.109Z,18.39
2022-08-18T04:44:34.823Z,18.33
2022-08-18T04:47:02.794Z,18.04
2022-08-18T04:49:32.279Z,18.03
2022-08-18T04:52:34.442Z,17.88
2022-08-18T04:55:08.303Z,18.10
2022-08-18T04:57:36.473Z,18.28
2022-08-18T05:00:07.346Z,18.36
2022-08-18T05:02:35.132Z,18.50
2022-08-18T05:05:04.507Z,18.59
2022-08-18T05:07:34.048Z,18.53
2022-08-18T05:10:02.458Z,18.55
2022-08-18T05:12:30.207Z,18.59
2022-08-18T05:14:58.694Z,18.62
2022-08-18T05:17:28.875Z,18.51
2022-08-18T05:19:59.230Z,18.41
2022-08-18T05:22:28.487Z,18.38
2022-08-18T05:25:00.732Z,18.47
2022-08-18T05:27:32.836Z,18.52
2022-08-18T05:30:00.523Z,18.46
2022-08-18T05:32:47.347Z,18.41
2022-08-18T05:35:23.372Z,18.44
2022-08-18T05:38:05.231Z,18.39
2022-08-18T05:40:35.892Z,18.49
2022-08-18T05:43:05.674Z,18.61
2022-08-18T05:45:35.113Z,18.47
2022-08-18T05:48:02.866Z,18.61
2022-08-18T05:50:34.000Z,18.68
2022-08-18T05:53:13.857Z,18.73
2022-08-18T05:56:14.426Z,18.48
2022-08-18T05:58:45.352Z,18.57
2022-08-18T06:01:19.264Z,18.58
2022-08-18T06:03:51.165Z,18.62
2022-08-18T06:06:27.885Z,18.64
2022-08-18T06:09:02.560Z,18.80
2022-08-18T06:11:32.914Z,18.93
2022-08-18T06:14:01.348Z,19.00
2022-08-18T06:16:44.708Z,18.94
2022-08-18T06:19:27.984Z,19.06
2022-08-18T06:22:04.422Z,19.10
2022-08-18T06:24:37.544Z,18.99
2022-08-18T06:27:15.442Z,19.07
2022-08-18T06:29:55.392Z,19.09
2022-08-18T06:32:32.502Z,19.06
2022-08-18T06:35:12.167Z,19.09
2022-08-18T06:38:14.214Z,19.04
2022-08-18T06:40:43.156Z,19.04
2022-08-18T06:43:16.993Z,19.16
2022-08-18T06:45:53.311Z,19.26
2022-08-18T06:48:28.318Z,19.46
2022-08-18T06:51:00.800Z,19.63
2022-08-18T06:53:53.492Z,19.54
2022-08-18T06:56:26.287Z,19.57
2022-08-18T06:59:03.343Z,19.63
2022-08-18T07:01:33.858Z,19.89
2022-08-18T07:04:01.566Z,20.02
2022-08-18T07:06:32.628Z,20.17
2022-08-18T07:09:21.226Z,20.25
2022-08-18T07:12:08.183Z,20.36
2022-08-18T07:14:46.185Z,20.45
2022-08-18T07:17:22.514Z,20.34
2022-08-18T07:20:20.412Z,20.19
2022-08-18T07:23:08.488Z,20.24
2022-08-18T07:25:43.062Z,20.43
2022-08-18T07:28:30.429Z,20.54
2022-08-18T07:31:17.220Z,20.52
2022-08-18T07:33:56.621Z,20.82
2022-08-18T07:36:32.146Z,21.08
2022-08-18T07:39:03.833Z,21.04
2022-08-18T07:41:37.775Z,21.18
2022-08-18T07:44:19.152Z,21.38
2022-08-18T07:46:55.169Z,21.18
2022-08-18T07:49:29.711Z,21.46
2022-08-18T07:52:36.636Z,21.08
2022-08-18T07:55:24.481Z,21.43
2022-08-18T07:58:00.777Z,21.33
2022-08-18T08:00:57.657Z,21.64
2022-08-18T08:03:36.549Z,21.72
2022-08-18T08:06:09.592Z,21.73
2022-08-18T08:08:43.469Z,21.99
2022-08-18T08:11:27.630Z,22.02
2022-08-18T08:14:13.762Z,22.23
2022-08-18T08:16:48.160Z,22.36
2022-08-18T08:19:58.795Z,22.30
2022-08-18T08:22:28.536Z,22.36
2022-08-18T08:25:03.828Z,22.18
2022-08-18T08:27:43.386Z,22.40
2022-08-18T08:30:14.198Z,22.74
2022-08-18T08:32:51.365Z,23.07
2022-08-18T08:35:50.105Z,23.56
2022-08-18T08:38:42.801Z,23.97
2022-08-18T08:41:19.459Z,24.06
2022-08-18T08:43:54.302Z,24.34
2022-08-18T08:46:26.142Z,24.44
2022-08-18T08:49:00.431Z,24.62
2022-08-18T08:51:36.722Z,24.81
2022-08-18T08:54:09.671Z,24.90
2022-08-18T08:56:43.602Z,25.39
2022-08-18T08:59:13.679Z,25.77
2022-08-18T09:01:49.345Z,25.96
2022-08-18T09:04:30.022Z,26.52
2022-08-18T09:07:13.434Z,26.65
2022-08-18T09:10:06.837Z,26.54
2022-08-18T09:12:50.294Z,27.11
2022-08-18T09:15:34.090Z,27.12
2022-08-18T09:18:14.874Z,27.65
2022-08-18T09:20:54.414Z,27.95
2022-08-18T09:23:29.461Z,28.16
2022-08-18T09:26:00.351Z,28.11
2022-08-18T09:28:56.629Z,28.41
2022-08-18T09:31:26.224Z,28.87
2022-08-18T09:34:10.596Z,29.13
2022-08-18T09:37:09.948Z,29.55
2022-08-18T09:40:10.957Z,29.71
2022-08-18T09:42:57.837Z,29.79
2022-08-18T09:45:57.455Z,29.91
2022-08-18T09:48:30.621Z,30.06
2022-08-18T09:51:40.124Z,30.14
2022-08-18T09:54:21.485Z,30.12
2022-08-18T09:57:19.264Z,30.15
2022-08-18T10:00:33.487Z,30.20
2022-08-18T10:03:14.167Z,30.35
2022-08-18T10:05:59.544Z,30.76
2022-08-18T10:09:18.171Z,30.78
2022-08-18T10:12:27.486Z,30.35
2022-08-18T10:15:33.146Z,29.71
2022-08-18T10:18:21.479Z,30.05
2022-08-18T10:21:00.125Z,30.32
2022-08-18T10:23:51.714Z,30.14
2022-08-18T10:27:09.243Z,30.25
2022-08-18T10:29:53.467Z,30.05
2022-08-18T10:32:54.087Z,30.14
2022-08-18T10:35:58.418Z,30.86
2022-08-18T10:38:49.817Z,31.49
2022-08-18T10:41:26.441Z,32.10
2022-08-18T10:44:01.351Z,32.47
2022-08-18T10:46:46.628Z,32.33
2022-08-18T10:49:25.290Z,31.83
2022-08-18T10:52:17.212Z,31.25
2022-08-18T10:55:06.913Z,31.13
2022-08-18T10:57:55.912Z,31.22
2022-08-18T11:00:36.925Z,31.00
2022-08-18T11:03:52.170Z,30.79
2022-08-18T11:06:06.844Z,31.06
2022-08-18T11:08:46.059Z,31.36
2022-08-18T11:11:33.795Z,31.68
2022-08-18T11:14:13.095Z,31.93
2022-08-18T11:16:50.556Z,31.87
2022-08-18T11:19:24.733Z,31.88
2022-08-18T11:21:54.107Z,31.77
2022-08-18T11:24:25.255Z,31.41
2022-08-18T11:26:55.965Z,30.99
2022-08-18T11:29:29.382Z,30.67
2022-08-18T11:32:04.743Z,30.54
2022-08-18T11:37:48.979Z,30.53
2022-08-18T11:41:11.198Z,30.48
2022-08-18T11:43:29.855Z,30.46
2022-08-18T11:45:59.836Z,30.50
2022-08-18T11:48:50.934Z,30.63
2022-08-18T11:51:26.899Z,30.67
2022-08-18T11:53:59.637Z,30.57
2022-08-18T11:56:32.393Z,30.49
2022-08-18T11:59:09.219Z,30.34
2022-08-18T12:01:48.642Z,30.41
2022-08-18T12:04:24.465Z,30.04
2022-08-18T12:07:01.087Z,29.88
2022-08-18T12:12:33.193Z,29.28
2022-08-18T12:15:25.259Z,29.37
2022-08-18T12:17:57.987Z,29.41
2022-08-18T12:20:25.661Z,29.45
2022-08-18T12:22:57.976Z,29.69
2022-08-18T12:25:25.897Z,29.67
2022-08-18T12:27:53.917Z,29.72
2022-08-18T12:30:22.016Z,29.77
2022-08-18T12:32:55.787Z,29.69
2022-08-18T12:35:25.094Z,29.57
2022-08-18T12:38:00.219Z,29.51
2022-08-18T12:40:40.258Z,29.49
2022-08-18T12:43:08.082Z,29.46
2022-08-18T12:45:37.403Z,29.30
2022-08-18T12:48:06.872Z,29.25
2022-08-18T12:50:42.658Z,29.22
2022-08-18T12:53:30.088Z,29.17
2022-08-18T12:56:10.703Z,29.16
2022-08-18T12:58:40.558Z,29.10
2022-08-18T13:01:08.608Z,29.04
2022-08-18T13:03:37.001Z,29.00
2022-08-18T13:06:05.186Z,28.92
2022-08-18T13:08:38.090Z,28.99
2022-08-18T13:11:23.558Z,28.93
2022-08-18T13:13:56.102Z,29.03
2022-08-18T13:16:30.689Z,29.12
2022-08-18T13:19:15.503Z,29.15
2022-08-18T13:21:43.246Z,29.13
2022-08-18T13:24:13.196Z,29.02
2022-08-18T13:26:46.229Z,28.85
2022-08-18T13:29:17.548Z,28.75
2022-08-18T13:31:55.399Z,28.73
2022-08-18T13:34:27.518Z,28.91
2022-08-18T13:36:58.179Z,29.03
2022-08-18T13:39:31.305Z,29.16
2022-08-18T13:42:26.311Z,29.12
2022-08-18T13:44:52.857Z,28.97
2022-08-18T13:47:21.121Z,28.90
2022-08-18T13:49:57.883Z,28.97
2022-08-18T13:52:34.203Z,28.81
2022-08-18T13:55:08.384Z,28.59
2022-08-18T13:57:41.836Z,28.53
2022-08-18T14:00:18.236Z,28.46
2022-08-18T14:02:50.074Z,28.40
2022-08-18T14:05:18.439Z,28.41
2022-08-18T14:07:48.824Z,28.39
2022-08-18T14:10:19.215Z,28.39
2022-08-18T14:12:47.395Z,28.36
2022-08-18T14:15:18.068Z,28.39
2022-08-18T14:17:46.556Z,28.42
2022-08-18T14:20:35.275Z,28.45
2022-08-18T14:23:25.184Z,28.49
2022-08-18T14:26:19.410Z,28.53
2022-08-18T14:28:47.599Z,28.49
2022-08-18T14:31:20.559Z,28.45
2022-08-18T14:33:53.553Z,28.34
2022-08-18T14:36:29.922Z,28.15
2022-08-18T14:38:58.548Z,27.94
2022-08-18T14:41:29.186Z,27.90
2022-08-18T14:44:12.982Z,27.73
2022-08-18T14:46:52.232Z,27.58
2022-08-18T14:49:28.143Z,27.50
2022-08-18T14:51:58.507Z,27.32
2022-08-18T14:54:28.486Z,27.28
2022-08-18T14:57:01.716Z,27.18
2022-08-18T14:59:37.833Z,27.08
2022-08-18T15:02:06.939Z,26.90
2022-08-18T15:04:56.383Z,26.72
2022-08-18T15:07:25.982Z,26.66
2022-08-18T15:10:14.894Z,26.59
2022-08-18T15:12:43.728Z,26.53
2022-08-18T15:15:15.930Z,26.39
2022-08-18T15:17:50.380Z,25.97
2022-08-18T15:20:24.057Z,25.78
2022-08-18T15:23:17.658Z,25.84
2022-08-18T15:25:51.493Z,25.69
2022-08-18T15:28:23.786Z,25.40
2022-08-18T15:33:41.917Z,25.06
2022-08-18T15:36:10.625Z,24.92
2022-08-18T15:38:44.119Z,25.02
2022-08-18T15:41:29.491Z,24.87
2022-08-18T15:44:00.811Z,24.83
2022-08-18T15:46:29.788Z,24.86
2022-08-18T15:48:57.919Z,24.70
2022-08-18T15:51:26.517Z,24.57
2022-08-18T15:54:04.072Z,24.63
2022-08-18T15:56:33.123Z,24.53
2022-08-18T15:59:07.659Z,24.40
2022-08-18T16:01:41.901Z,24.34
2022-08-18T16:04:10.348Z,24.18
2022-08-18T16:06:41.253Z,24.13
2022-08-18T16:09:09.440Z,24.10
2022-08-18T16:11:37.575Z,23.91
2022-08-18T16:14:09.147Z,24.02
2022-08-18T16:16:37.056Z,24.00
2022-08-18T16:19:07.641Z,24.16
2022-08-18T16:21:40.479Z,24.03
2022-08-18T16:24:09.232Z,24.06
2022-08-18T16:26:38.064Z,23.62
2022-08-18T16:29:07.069Z,23.74
2022-08-18T16:31:35.156Z,23.76
2022-08-18T16:34:03.152Z,23.74
2022-08-18T16:36:31.471Z,23.59
2022-08-18T16:38:59.180Z,23.41
2022-08-18T16:41:28.142Z,23.49
2022-08-18T16:43:56.345Z,23.39
2022-08-18T16:46:28.220Z,23.25
2022-08-18T16:48:57.569Z,23.30
2022-08-18T16:51:28.649Z,23.40
2022-08-18T16:53:56.470Z,23.39
2022-08-18T16:56:27.096Z,23.28
2022-08-18T16:59:12.930Z,23.24
2022-08-18T17:02:00.839Z,23.02
2022-08-18T17:04:30.089Z,22.81
2022-08-18T17:06:58.565Z,22.79
2022-08-18T17:09:26.489Z,22.73
2022-08-18T17:11:55.709Z,22.43
2022-08-18T17:14:25.834Z,22.39
2022-08-18T17:16:56.175Z,22.19
2022-08-18T17:19:25.371Z,22.19
2022-08-18T17:21:53.337Z,22.13
2022-08-18T17:24:32.194Z,22.05
2022-08-18T17:27:22.839Z,21.87
2022-08-18T17:30:01.583Z,21.79
2022-08-18T17:35:14.674Z,21.73
2022-08-18T17:37:49.230Z,21.90
2022-08-18T17:40:21.854Z,21.97
2022-08-18T17:42:51.729Z,22.05
2022-08-18T17:45:22.053Z,22.06
2022-08-18T17:47:57.892Z,22.12
2022-08-18T17:50:47.020Z,22.14
2022-08-18T17:53:16.054Z,22.13
2022-08-18T17:55:48.340Z,22.06
2022-08-18T17:58:22.520Z,22.07
2022-08-18T18:00:50.161Z,22.08
2022-08-18T18:03:19.252Z,22.10
2022-08-18T18:05:52.584Z,22.08
2022-08-18T18:08:20.254Z,22.12
2022-08-18T18:11:04.250Z,22.09
2022-08-18T18:13:34.541Z,22.04
2022-08-18T18:16:20.182Z,22.05
2022-08-18T18:18:59.963Z,21.90
2022-08-18T18:22:00.200Z,21.43
2022-08-18T18:24:23.678Z,21.34
2022-08-18T18:26:52.557Z,20.92
2022-08-18T18:29:28.866Z,20.80
2022-08-18T18:32:00.479Z,20.73
2022-08-18T18:34:39.924Z,20.77
2022-08-18T18:37:26.299Z,20.78
2022-08-18T18:39:59.666Z,20.81
2022-08-18T18:42:30.967Z,20.71
2022-08-18T18:45:01.369Z,20.69
2022-08-18T18:47:45.620Z,20.63
2022-08-18T18:50:22.771Z,20.62
2022-08-18T18:53:03.178Z,20.51
2022-08-18T18:55:36.095Z,20.52
2022-08-18T18:58:14.347Z,20.34
2022-08-18T19:00:53.599Z,20.25
2022-08-18T19:03:27.815Z,20.27
2022-08-18T19:06:14.225Z,20.23
2022-08-18T19:08:51.839Z,20.22
2022-08-18T19:11:30.039Z,20.16
2022-08-18T19:14:07.583Z,20.29
2022-08-18T19:16:41.173Z,20.20
2022-08-18T19:19:37.429Z,20.25
2022-08-18T19:22:13.421Z,20.42
2022-08-18T19:24:52.193Z,20.63
2022-08-18T19:27:27.907Z,20.67
2022-08-18T19:30:01.581Z,20.77
2022-08-18T19:32:38.285Z,20.68
2022-08-18T19:35:11.839Z,20.74
2022-08-18T19:37:54.338Z,20.60
2022-08-18T19:40:28.143Z,20.59
2022-08-18T19:43:01.039Z,20.42
2022-08-18T19:45:34.339Z,20.16
2022-08-18T19:48:08.359Z,20.11
2022-08-18T19:50:41.931Z,20.05
2022-08-18T19:53:32.578Z,20.19
2022-08-18T19:56:22.655Z,20.32
2022-08-18T19:59:18.534Z,20.01
2022-08-18T20:02:05.659Z,20.12
2022-08-18T20:04:53.145Z,20.12
2022-08-18T20:07:56.505Z,19.98
2022-08-18T20:10:38.899Z,19.80
2022-08-18T20:13:23.269Z,19.93
2022-08-18T20:16:13.582Z,19.69
2022-08-18T20:18:43.710Z,19.86
2022-08-18T20:21:49.589Z,19.96
2022-08-18T20:24:39.330Z,20.04
2022-08-18T20:27:35.474Z,20.08
2022-08-18T20:30:32.490Z,19.98
2022-08-18T20:33:10.473Z,20.06
2022-08-18T20:35:45.827Z,19.95
2022-08-18T20:38:27.072Z,19.86
2022-08-18T20:40:55.386Z,19.78
2022-08-18T20:43:30.379Z,19.86
2022-08-18T20:46:19.120Z,19.53
2022-08-18T20:49:06.120Z,19.51
2022-08-18T20:51:42.530Z,19.12
2022-08-18T20:54:30.292Z,19.13
2022-08-18T20:57:03.615Z,19.40
2022-08-18T20:59:36.511Z,19.42
2022-08-18T21:02:09.276Z,19.47
2022-08-18T21:04:46.078Z,19.67
2022-08-18T21:07:36.762Z,19.52
2022-08-18T21:10:14.709Z,19.46
2022-08-18T21:12:52.033Z,19.52
2022-08-18T21:15:24.602Z,19.31
2022-08-18T21:18:03.739Z,19.46
2022-08-18T21:20:32.845Z,19.41
2022-08-18T21:23:07.629Z,19.48
2022-08-18T21:25:36.549Z,19.32
2022-08-18T21:28:07.168Z,19.36
2022-08-18T21:30:36.650Z,19.39
2022-08-18T21:33:20.017Z,19.39
2022-08-18T21:35:48.513Z,19.32
2022-08-18T21:38:24.073Z,19.18
2022-08-18T21:40:58.346Z,19.14
2022-08-18T21:43:42.328Z,19.09
2022-08-18T21:46:26.265Z,19.07
2022-08-18T21:48:56.228Z,19.11
2022-08-18T21:51:27.673Z,19.11
2022-08-18T21:53:56.014Z,19.10
2022-08-18T21:56:28.067Z,18.94
2022-08-18T21:59:09.284Z,19.17
2022-08-18T22:01:48.233Z,19.02
2022-08-18T22:04:29.539Z,18.98
2022-08-18T22:07:00.607Z,18.98
2022-08-18T22:09:48.378Z,19.19
2022-08-18T22:12:42.678Z,19.26
2022-08-18T22:15:12.805Z,19.45
2022-08-18T22:17:54.251Z,19.58
2022-08-18T22:20:47.881Z,19.46
2022-08-18T22:23:55.864Z,19.48
2022-08-18T22:26:27.510Z,19.30
2022-08-18T22:29:02.578Z,19.58
2022-08-18T22:31:32.546Z,19.74
2022-08-18T22:34:04.738Z,19.87
2022-08-18T22:36:37.216Z,19.97
2022-08-18T22:39:08.786Z,19.95
2022-08-18T22:41:37.423Z,19.95
2022-08-18T22:44:05.583Z,19.96
2022-08-18T22:46:34.927Z,19.91
2022-08-18T22:49:04.500Z,19.77
2022-08-18T22:51:37.003Z,19.53
2022-08-18T22:54:06.294Z,19.28
2022-08-18T22:56:35.752Z,19.15
2022-08-18T22:59:15.830Z,19.13
2022-08-18T23:01:46.749Z,19.22
2022-08-18T23:04:16.990Z,19.56
2022-08-18T23:06:52.600Z,19.64
2022-08-18T23:09:22.884Z,19.54
2022-08-18T23:11:52.011Z,19.66
2022-08-18T23:14:19.670Z,19.49
2022-08-18T23:16:47.897Z,19.49
2022-08-18T23:19:18.277Z,19.35
2022-08-18T23:21:46.583Z,19.04
2022-08-18T23:24:16.341Z,18.85
2022-08-18T23:26:44.424Z,18.86
2022-08-18T23:29:14.629Z,18.74
2022-08-18T23:31:44.829Z,18.80
2022-08-18T23:34:15.659Z,18.82
2022-08-18T23:36:46.175Z,18.77
2022-08-18T23:39:14.853Z,18.82
2022-08-18T23:41:42.999Z,18.64
2022-08-18T23:44:11.817Z,18.53
2022-08-18T23:46:39.707Z,18.53
2022-08-18T23:49:13.739Z,18.61
2022-08-18T23:51:45.782Z,18.66
2022-08-18T23:54:17.634Z,18.71
2022-08-18T23:56:46.302Z,18.87
2022-08-18T23:59:15.251Z,18.81
